Time;durP1;ratioP1;P1;durP2;ratioP2;P2;SDS_P1;SDS_P2;PMS_P1;PMS_P2;Temp;Humidity;BMP_temperature;BMP_pressure;BME280_temperature;BME280_humidity;BME280_pressure;Samples;Min_cycle;Max_cycle;Signal;HPM_P1;HPM_P2
2022/09/20 00:00:44;;;;;;;9.65;3.70;;;;;;;;;;5034262;28;20079;-69
2022/09/20 00:03:11;;;;;;;8.15;3.95;;;;;;;;;;5034185;28;20136;-69
2022/09/20 00:05:39;;;;;;;11.68;4.18;;;;;;;;;;5034235;28;20083;-69
2022/09/20 00:08:09;;;;;;;7.85;3.88;;;;;;;;;;5033976;28;20054;-69
2022/09/20 00:10:38;;;;;;;9.30;4.22;;;;;;;;;;5016377;28;20060;-69
2022/09/20 00:13:06;;;;;;;7.32;3.17;;;;;;;;;;5034247;28;20045;-69
2022/09/20 00:15:33;;;;;;;6.55;3.70;;;;;;;;;;5033958;28;20081;-69
2022/09/20 00:18:00;;;;;;;9.38;3.72;;;;;;;;;;5034314;28;20095;-69
2022/09/20 00:20:26;;;;;;;7.47;4.30;;;;;;;;;;5016351;28;20076;-69
2022/09/20 00:22:53;;;;;;;11.43;4.10;;;;;;;;;;5016183;28;20136;-69
2022/09/20 00:25:21;;;;;;;9.82;4.55;;;;;;;;;;5033761;28;20050;-69
2022/09/20 00:27:47;;;;;;;6.85;3.90;;;;;;;;;;5033862;28;20053;-69
2022/09/20 00:30:14;;;;;;;7.03;4.03;;;;;;;;;;5033880;28;20397;-69
2022/09/20 00:32:41;;;;;;;7.32;4.25;;;;;;;;;;5033640;28;20091;-69
2022/09/20 00:35:09;;;;;;;11.52;4.38;;;;;;;;;;5033575;28;20053;-69
2022/09/20 00:37:37;;;;;;;11.73;4.68;;;;;;;;;;5033412;28;20141;-69
2022/09/20 00:40:12;;;;;;;8.88;4.43;;;;;;;;;;5033423;28;20570;-69
2022/09/20 00:42:39;;;;;;;7.82;4.35;;;;;;;;;;5033394;28;20560;-69
2022/09/20 00:45:16;;;;;;;6.45;3.83;;;;;;;;;;5033675;28;20054;-69
2022/09/20 00:47:47;;;;;;;7.55;4.35;;;;;;;;;;5015829;28;20338;-69
2022/09/20 00:50:22;;;;;;;4.93;3.80;;;;;;;;;;4999919;28;20132;-69
2022/09/20 00:53:11;;;;;;;7.88;3.70;;;;;;;;;;5016191;28;20132;-69
2022/09/20 00:55:41;;;;;;;5.65;4.28;;;;;;;;;;5004968;28;20050;-69
2022/09/20 00:58:08;;;;;;;8.25;4.07;;;;;;;;;;5015753;28;20099;-69
2022/09/20 01:00:34;;;;;;;6.75;3.80;;;;;;;;;;5015357;28;20095;-69
2022/09/20 01:03:03;;;;;;;6.97;3.92;;;;;;;;;;4999636;28;20088;-69
2022/09/20 01:05:29;;;;;;;10.25;4.85;;;;;;;;;;4999404;28;20124;-69
2022/09/20 01:07:56;;;;;;;6.57;4.07;;;;;;;;;;5015075;28;20112;-69
2022/09/20 01:10:23;;;;;;;8.15;4.60;;;;;;;;;;5034252;28;20054;-69
2022/09/20 01:12:49;;;;;;;11.38;4.88;;;;;;;;;;5048146;28;20037;-69
2022/09/20 01:15:16;;;;;;;10.35;4.50;;;;;;;;;;5003186;28;20136;-69
2022/09/20 01:17:47;;;;;;;6.10;4.68;;;;;;;;;;5032984;28;20088;-70
2022/09/20 01:20:22;;;;;;;7.85;3.95;;;;;;;;;;4999543;28;20072;-69
2022/09/20 01:23:15;;;;;;;10.75;4.07;;;;;;;;;;5015303;28;20506;-70
2022/09/20 01:26:07;;;;;;;6.55;4.13;;;;;;;;;;5018045;28;20050;-69
2022/09/20 01:28:33;;;;;;;7.63;4.43;;;;;;;;;;5032790;28;20049;-69
2022/09/20 01:31:03;;;;;;;8.82;4.45;;;;;;;;;;5015424;28;20337;-69
2022/09/20 01:34:01;;;;;;;4.88;3.83;;;;;;;;;;5032848;28;20507;-69
2022/09/20 01:36:49;;;;;;;8.18;4.10;;;;;;;;;;5005577;28;20087;-70
2022/09/20 01:39:18;;;;;;;8.80;4.35;;;;;;;;;;5014918;28;20080;-69
2022/09/20 01:41:50;;;;;;;6.55;4.47;;;;;;;;;;5032659;28;20504;-69
2022/09/20 01:44:24;;;;;;;7.63;4.35;;;;;;;;;;4999043;28;20084;-69
2022/09/20 01:46:58;;;;;;;8.55;4.88;;;;;;;;;;5016155;28;20053;-69
2022/09/20 01:49:30;;;;;;;9.25;4.53;;;;;;;;;;5015690;28;20405;-69
2022/09/20 01:52:24;;;;;;;7.78;4.22;;;;;;;;;;5014859;28;20053;-69
2022/09/20 01:55:07;;;;;;;8.60;4.57;;;;;;;;;;5032233;28;20081;-69
2022/09/20 01:57:39;;;;;;;8.60;3.93;;;;;;;;;;5014755;28;20504;-69
2022/09/20 02:00:14;;;;;;;8.85;4.53;;;;;;;;;;5032222;28;20099;-69
2022/09/20 02:02:59;;;;;;;10.63;4.45;;;;;;;;;;4998653;28;20080;-69
2022/09/20 02:05:48;;;;;;;6.53;4.75;;;;;;;;;;5032268;28;20493;-69
2022/09/20 02:08:34;;;;;;;5.43;3.97;;;;;;;;;;5015542;28;20081;-69
2022/09/20 02:11:11;;;;;;;6.70;3.92;;;;;;;;;;5016831;28;20081;-69
2022/09/20 02:13:38;;;;;;;5.85;4.18;;;;;;;;;;5014556;28;20089;-69
2022/09/20 02:16:33;;;;;;;8.85;4.13;;;;;;;;;;5032137;28;20089;-69
2022/09/20 02:19:25;;;;;;;10.27;4.13;;;;;;;;;;5030477;28;20057;-69
2022/09/20 02:22:17;;;;;;;8.40;4.15;;;;;;;;;;5036320;28;20049;-69
2022/09/20 02:24:57;;;;;;;5.85;3.95;;;;;;;;;;5036105;28;20049;-69
2022/09/20 02:27:53;;;;;;;6.68;4.22;;;;;;;;;;5003248;28;20092;-69
2022/09/20 02:30:43;;;;;;;9.10;4.25;;;;;;;;;;5021327;28;20419;-69
2022/09/20 02:33:28;;;;;;;5.82;3.92;;;;;;;;;;5002273;28;20405;-69
2022/09/20 02:36:22;;;;;;;6.35;3.72;;;;;;;;;;5018283;28;20457;-69
2022/09/20 02:39:07;;;;;;;7.47;4.00;;;;;;;;;;5035863;28;20088;-69
2022/09/20 02:41:44;;;;;;;7.30;2.80;;;;;;;;;;5018184;28;20089;-69
2022/09/20 02:44:17;;;;;;;7.80;2.75;;;;;;;;;;5018482;28;20049;-69
2022/09/20 02:47:10;;;;;;;6.78;2.40;;;;;;;;;;5018043;28;20080;-69
2022/09/20 02:49:42;;;;;;;4.70;2.33;;;;;;;;;;5020834;28;20053;-69
2022/09/20 02:52:53;;;;;;;4.68;2.60;;;;;;;;;;5035799;28;20123;-69
2022/09/20 02:55:37;;;;;;;7.53;2.40;;;;;;;;;;4981860;28;20045;-69
2022/09/20 02:58:25;;;;;;;6.72;2.60;;;;;;;;;;5017667;28;20072;-69
2022/09/20 03:01:06;;;;;;;4.40;2.22;;;;;;;;;;5035517;28;20057;-69
2022/09/20 03:03:48;;;;;;;7.72;2.17;;;;;;;;;;5017842;28;20053;-69
2022/09/20 03:06:39;;;;;;;5.45;2.13;;;;;;;;;;5019401;28;20041;-69
2022/09/20 03:09:17;;;;;;;7.55;2.22;;;;;;;;;;5017737;28;20424;-69
2022/09/20 03:12:05;;;;;;;5.68;2.30;;;;;;;;;;5017595;28;20049;-69
2022/09/20 03:14:36;;;;;;;5.72;2.25;;;;;;;;;;5035309;28;20088;-69
2022/09/20 03:17:13;;;;;;;5.28;2.15;;;;;;;;;;5035225;28;20077;-69
2022/09/20 03:19:39;;;;;;;4.28;1.90;;;;;;;;;;5034885;28;20076;-69
2022/09/20 03:22:21;;;;;;;6.28;2.30;;;;;;;;;;5035024;28;20103;-69
2022/09/20 03:25:00;;;;;;;10.27;1.97;;;;;;;;;;5017419;28;20049;-69
2022/09/20 03:27:38;;;;;;;3.78;1.88;;;;;;;;;;5019176;28;20311;-69
2022/09/20 03:30:22;;;;;;;6.03;1.67;;;;;;;;;;5001786;28;20439;-69
2022/09/20 03:33:04;;;;;;;4.40;1.70;;;;;;;;;;5017164;28;20049;-69
2022/09/20 03:35:30;;;;;;;7.05;2.10;;;;;;;;;;5017090;28;20045;-69
2022/09/20 03:38:27;;;;;;;5.50;1.83;;;;;;;;;;5034644;28;20080;-69
2022/09/20 03:41:30;;;;;;;4.78;1.45;;;;;;;;;;5034397;28;20409;-69
2022/09/20 03:44:00;;;;;;;5.03;2.00;;;;;;;;;;5016923;28;20539;-69
2022/09/20 03:46:47;;;;;;;5.03;2.03;;;;;;;;;;5034537;28;20500;-69
2022/09/20 03:49:51;;;;;;;5.55;2.20;;;;;;;;;;5016958;28;20443;-69
2022/09/20 03:52:36;;;;;;;3.85;1.40;;;;;;;;;;5017439;28;20050;-69
2022/09/20 03:55:15;;;;;;;3.35;1.48;;;;;;;;;;5034245;28;20455;-69
2022/09/20 03:58:06;;;;;;;6.00;1.45;;;;;;;;;;5034720;28;20049;-69
2022/09/20 04:00:49;;;;;;;7.57;1.75;;;;;;;;;;5019729;28;20080;-69
2022/09/20 04:03:36;;;;;;;6.60;1.70;;;;;;;;;;5016788;28;20054;-69
2022/09/20 04:06:15;;;;;;;10.70;1.98;;;;;;;;;;5016568;28;20053;-69
2022/09/20 04:08:51;;;;;;;5.10;1.42;;;;;;;;;;5034304;28;20046;-68
2022/09/20 04:11:43;;;;;;;6.55;1.77;;;;;;;;;;5034042;28;20053;-69
2022/09/20 04:14:24;;;;;;;4.80;1.83;;;;;;;;;;5016399;28;20049;-69
2022/09/20 04:17:01;;;;;;;4.90;1.60;;;;;;;;;;5016382;28;20045;-69
2022/09/20 04:19:38;;;;;;;4.97;1.50;;;;;;;;;;5016449;28;20369;-69
2022/09/20 04:22:06;;;;;;;3.38;1.70;;;;;;;;;;5016515;28;20532;-69
2022/09/20 04:24:45;;;;;;;9.25;2.35;;;;;;;;;;5033854;28;20073;-69
2022/09/20 04:27:30;;;;;;;3.00;1.50;;;;;;;;;;5034307;28;20694;-69
2022/09/20 04:30:21;;;;;;;5.00;1.75;;;;;;;;;;5000506;28;20065;-69
2022/09/20 04:33:05;;;;;;;7.65;2.28;;;;;;;;;;5000553;28;20084;-69
2022/09/20 04:38:29;;;;;;;5.25;1.85;;;;;;;;;;5033238;28;20057;-69
2022/09/20 04:41:21;;;;;;;6.15;2.10;;;;;;;;;;5033448;28;20501;-69
2022/09/20 04:43:57;;;;;;;5.47;1.77;;;;;;;;;;5016491;28;20049;-69
2022/09/20 04:46:24;;;;;;;8.88;2.42;;;;;;;;;;5033602;28;20050;-69
2022/09/20 04:49:24;;;;;;;7.03;2.28;;;;;;;;;;5033121;28;20049;-69
2022/09/20 04:52:30;;;;;;;7.40;2.45;;;;;;;;;;5033349;28;20053;-70
2022/09/20 04:55:05;;;;;;;6.90;2.47;;;;;;;;;;5018377;28;20049;-70
2022/09/20 04:58:03;;;;;;;5.97;1.85;;;;;;;;;;5015754;28;20085;-69
2022/09/20 05:00:51;;;;;;;8.38;2.45;;;;;;;;;;5033064;28;20050;-69
2022/09/20 05:03:42;;;;;;;3.08;2.10;;;;;;;;;;5017286;28;20054;-69
2022/09/20 05:06:10;;;;;;;6.00;2.80;;;;;;;;;;5015432;28;20107;-70
2022/09/20 05:09:07;;;;;;;9.40;3.40;;;;;;;;;;5033324;28;20049;-70
2022/09/20 05:12:13;;;;;;;5.85;2.55;;;;;;;;;;5017594;28;20053;-69
2022/09/20 05:15:08;;;;;;;6.03;2.50;;;;;;;;;;5015559;28;20084;-69
2022/09/20 05:17:37;;;;;;;7.43;2.75;;;;;;;;;;5015415;28;20635;-69
2022/09/20 05:20:23;;;;;;;6.47;2.05;;;;;;;;;;5032965;28;20054;-70
2022/09/20 05:23:34;;;;;;;5.95;2.78;;;;;;;;;;5015873;28;20471;-70
2022/09/20 05:26:29;;;;;;;7.05;2.42;;;;;;;;;;4963436;28;20086;-71
2022/09/20 05:29:00;;;;;;;6.25;2.33;;;;;;;;;;5018286;28;20045;-71
2022/09/20 05:31:36;;;;;;;6.03;2.67;;;;;;;;;;4999782;28;20057;-71
2022/09/20 05:34:42;;;;;;;7.70;2.78;;;;;;;;;;5032756;28;20140;-70
2022/09/20 05:37:15;;;;;;;7.00;3.08;;;;;;;;;;5030489;28;20037;-70
2022/09/20 05:39:58;;;;;;;6.72;2.60;;;;;;;;;;5057374;28;20076;-70
2022/09/20 05:42:45;;;;;;;6.57;2.95;;;;;;;;;;5026512;28;20029;-70
2022/09/20 05:45:35;;;;;;;7.35;3.50;;;;;;;;;;5057761;28;20041;-69
2022/09/20 05:48:31;;;;;;;5.05;3.08;;;;;;;;;;5043172;28;20037;-70
2022/09/20 05:51:23;;;;;;;3.90;2.28;;;;;;;;;;5043247;28;20063;-71
2022/09/20 05:54:02;;;;;;;5.55;2.55;;;;;;;;;;5056879;28;20033;-71
2022/09/20 05:56:38;;;;;;;5.47;2.45;;;;;;;;;;5040403;28;20037;-70
2022/09/20 05:59:20;;;;;;;4.88;2.58;;;;;;;;;;5040736;28;20056;-70
2022/09/20 06:02:08;;;;;;;8.25;3.10;;;;;;;;;;5043458;28;20087;-70
2022/09/20 06:04:45;;;;;;;9.60;3.85;;;;;;;;;;5034058;28;20084;-70
2022/09/20 06:07:29;;;;;;;5.97;2.80;;;;;;;;;;4984811;28;20050;-70
2022/09/20 06:10:08;;;;;;;4.85;2.53;;;;;;;;;;5016671;28;20049;-69
2022/09/20 06:12:46;;;;;;;8.52;3.13;;;;;;;;;;5034290;28;20115;-69
2022/09/20 06:15:27;;;;;;;7.60;2.72;;;;;;;;;;5018338;28;20060;-69
2022/09/20 06:18:12;;;;;;;6.63;2.33;;;;;;;;;;5036485;28;20045;-71
2022/09/20 06:21:00;;;;;;;3.83;2.00;;;;;;;;;;5035443;28;20053;-70
2022/09/20 06:23:27;;;;;;;9.50;3.05;;;;;;;;;;5034304;28;20045;-70
2022/09/20 06:26:22;;;;;;;3.38;2.25;;;;;;;;;;5000272;28;20423;-70
2022/09/20 06:29:01;;;;;;;3.72;2.45;;;;;;;;;;5009211;28;20045;-70
2022/09/20 06:31:27;;;;;;;7.45;3.00;;;;;;;;;;5016196;28;20060;-70
2022/09/20 06:34:07;;;;;;;7.10;2.83;;;;;;;;;;4999048;28;20057;-70
2022/09/20 06:42:22;;;;;;;6.40;3.28;;;;;;;;;;5032675;28;20081;-70
2022/09/20 06:44:53;;;;;;;8.77;2.42;;;;;;;;;;5032860;28;20053;-70
2022/09/20 06:47:20;;;;;;;10.32;3.35;;;;;;;;;;5032298;28;20049;-70
2022/09/20 06:49:48;;;;;;;5.85;3.22;;;;;;;;;;5032089;28;20181;-70
2022/09/20 06:52:20;;;;;;;6.13;2.95;;;;;;;;;;5032105;28;20504;-70
2022/09/20 06:54:48;;;;;;;6.72;3.17;;;;;;;;;;5031877;28;20100;-69
2022/09/20 06:57:21;;;;;;;8.15;2.90;;;;;;;;;;5032079;28;20077;-69
2022/09/20 06:59:48;;;;;;;4.15;2.88;;;;;;;;;;5014913;28;20054;-69
2022/09/20 07:02:14;;;;;;;6.78;3.13;;;;;;;;;;5031981;28;20103;-70
2022/09/20 07:04:42;;;;;;;5.30;2.63;;;;;;;;;;5031940;28;20140;-70
2022/09/20 07:07:14;;;;;;;7.43;3.00;;;;;;;;;;5035428;28;20046;-70
2022/09/20 07:09:40;;;;;;;5.60;2.70;;;;;;;;;;5002286;28;20107;-70
2022/09/20 07:12:09;;;;;;;8.48;2.50;;;;;;;;;;5035835;28;20050;-70
2022/09/20 07:14:36;;;;;;;6.43;2.78;;;;;;;;;;5018394;28;20045;-69
2022/09/20 07:17:03;;;;;;;7.32;3.03;;;;;;;;;;5035997;28;20041;-69
2022/09/20 07:19:30;;;;;;;9.93;2.95;;;;;;;;;;5035493;28;20049;-69
2022/09/20 07:21:56;;;;;;;4.25;2.63;;;;;;;;;;5036841;28;20049;-69
2022/09/20 07:24:23;;;;;;;6.88;2.95;;;;;;;;;;5036446;28;20565;-70
2022/09/20 07:26:59;;;;;;;4.63;2.20;;;;;;;;;;5035793;28;20045;-70
2022/09/20 07:29:27;;;;;;;9.10;2.97;;;;;;;;;;5036815;28;20049;-71
2022/09/20 07:31:54;;;;;;;11.88;3.17;;;;;;;;;;5004153;28;20049;-70
2022/09/20 07:34:21;;;;;;;4.82;2.42;;;;;;;;;;5035169;28;20049;-70
2022/09/20 07:36:48;;;;;;;12.30;3.22;;;;;;;;;;5035382;28;20119;-70
2022/09/20 07:39:16;;;;;;;10.10;3.95;;;;;;;;;;5034992;28;20046;-70
2022/09/20 07:41:47;;;;;;;9.88;3.13;;;;;;;;;;5035190;28;20049;-71
2022/09/20 07:44:20;;;;;;;5.80;2.70;;;;;;;;;;5018172;28;20053;-71
2022/09/20 07:46:48;;;;;;;7.88;2.40;;;;;;;;;;5018258;28;20057;-70
2022/09/20 07:49:15;;;;;;;9.13;3.08;;;;;;;;;;5034521;28;20053;-70
2022/09/20 07:51:41;;;;;;;9.25;2.75;;;;;;;;;;5035019;28;20076;-70
2022/09/20 07:54:08;;;;;;;8.32;2.83;;;;;;;;;;5017222;28;20083;-70
2022/09/20 07:56:35;;;;;;;5.60;2.47;;;;;;;;;;5034734;28;20077;-70
2022/09/20 07:59:02;;;;;;;7.63;2.60;;;;;;;;;;5035106;28;20073;-70
2022/09/20 08:01:29;;;;;;;8.15;2.75;;;;;;;;;;5034574;28;20057;-70
2022/09/20 08:03:56;;;;;;;8.50;2.80;;;;;;;;;;5034397;28;20124;-69
2022/09/20 08:06:22;;;;;;;5.43;2.22;;;;;;;;;;5034591;28;20408;-69
2022/09/20 08:08:50;;;;;;;7.70;2.80;;;;;;;;;;5034521;28;20057;-70
2022/09/20 08:11:20;;;;;;;8.95;2.60;;;;;;;;;;5017145;28;20052;-70
2022/09/20 08:13:48;;;;;;;9.00;2.63;;;;;;;;;;5034474;28;20080;-70
2022/09/20 08:16:40;;;;;;;7.78;2.60;;;;;;;;;;5033839;28;20060;-70
2022/09/20 08:19:07;;;;;;;8.43;2.65;;;;;;;;;;5017071;28;20060;-70
2022/09/20 08:21:34;;;;;;;10.63;3.63;;;;;;;;;;5034388;28;20045;-70
2022/09/20 08:24:02;;;;;;;8.60;2.70;;;;;;;;;;5034338;28;20049;-70
2022/09/20 08:26:30;;;;;;;7.30;2.20;;;;;;;;;;5034094;28;20079;-70
2022/09/20 08:28:58;;;;;;;8.88;1.75;;;;;;;;;;5033830;28;20096;-70
2022/09/20 08:31:27;;;;;;;5.10;1.50;;;;;;;;;;5035551;28;20500;-71
2022/09/20 08:33:53;;;;;;;9.85;2.38;;;;;;;;;;5047414;28;20045;-70
2022/09/20 08:36:24;;;;;;;4.93;1.65;;;;;;;;;;5037828;28;20045;-70
2022/09/20 08:38:52;;;;;;;5.43;1.98;;;;;;;;;;5037436;28;20111;-71
2022/09/20 08:41:47;;;;;;;8.63;2.00;;;;;;;;;;5034335;28;20144;-70
2022/09/20 08:44:15;;;;;;;8.27;1.73;;;;;;;;;;5016429;28;20053;-70
2022/09/20 08:46:45;;;;;;;4.85;1.83;;;;;;;;;;5016576;28;20053;-70
2022/09/20 08:49:16;;;;;;;8.70;1.73;;;;;;;;;;5033886;28;20049;-70
2022/09/20 08:51:42;;;;;;;8.10;1.60;;;;;;;;;;5016610;28;20111;-70
2022/09/20 08:54:15;;;;;;;8.73;1.58;;;;;;;;;;5033716;28;20050;-70
2022/09/20 08:56:45;;;;;;;7.43;1.35;;;;;;;;;;5033501;28;20057;-70
2022/09/20 08:59:18;;;;;;;5.10;1.65;;;;;;;;;;5016594;28;20053;-70
2022/09/20 09:01:47;;;;;;;8.27;1.45;;;;;;;;;;5000260;28;20492;-70
2022/09/20 09:04:20;;;;;;;7.07;1.70;;;;;;;;;;5033861;28;20416;-70
2022/09/20 09:06:47;;;;;;;6.53;1.65;;;;;;;;;;5016668;28;20051;-70
2022/09/20 09:09:19;;;;;;;10.77;1.77;;;;;;;;;;5016602;28;20483;-70
2022/09/20 09:11:47;;;;;;;10.90;2.22;;;;;;;;;;5016594;28;20107;-70
2022/09/20 09:14:50;;;;;;;5.15;1.42;;;;;;;;;;5033618;28;20054;-70
2022/09/20 09:17:18;;;;;;;6.32;1.55;;;;;;;;;;5018495;28;20091;-70
2022/09/20 09:19:45;;;;;;;5.82;1.80;;;;;;;;;;5015792;28;20492;-70
2022/09/20 09:22:17;;;;;;;5.18;1.10;;;;;;;;;;5033675;28;20049;-70
2022/09/20 09:24:45;;;;;;;3.92;1.10;;;;;;;;;;5033383;28;20416;-71
2022/09/20 09:27:13;;;;;;;7.28;2.47;;;;;;;;;;4999795;28;20089;-70
2022/09/20 09:29:51;;;;;;;7.03;1.63;;;;;;;;;;5033228;28;20045;-70
2022/09/20 09:32:31;;;;;;;7.00;1.30;;;;;;;;;;5033552;28;20072;-70
2022/09/20 09:35:27;;;;;;;3.70;1.20;;;;;;;;;;5015858;28;20057;-70
2022/09/20 09:37:57;;;;;;;7.43;1.70;;;;;;;;;;5031254;28;20041;-70
2022/09/20 09:40:24;;;;;;;8.55;2.60;;;;;;;;;;5033297;28;20054;-70
2022/09/20 09:42:56;;;;;;;6.20;1.33;;;;;;;;;;5033652;28;20492;-70
2022/09/20 09:45:31;;;;;;;4.75;1.13;;;;;;;;;;5033457;28;20466;-70
2022/09/20 09:48:00;;;;;;;9.55;2.58;;;;;;;;;;5033186;28;20077;-70
2022/09/20 09:50:32;;;;;;;7.97;1.20;;;;;;;;;;5015702;28;20061;-70
2022/09/20 09:53:09;;;;;;;3.83;1.27;;;;;;;;;;5033465;28;20180;-70
2022/09/20 09:55:59;;;;;;;3.97;1.05;;;;;;;;;;4999800;28;20053;-70
2022/09/20 09:58:30;;;;;;;5.88;1.27;;;;;;;;;;5017645;28;20088;-69
2022/09/20 10:00:58;;;;;;;7.00;1.88;;;;;;;;;;5015996;28;20188;-70
2022/09/20 10:04:15;;;;;;;6.53;1.73;;;;;;;;;;5015961;28;20049;-70
2022/09/20 10:07:05;;;;;;;6.25;1.20;;;;;;;;;;4999464;28;20085;-70
2022/09/20 10:09:39;;;;;;;3.25;1.10;;;;;;;;;;5032550;28;20432;-70
2022/09/20 10:12:41;;;;;;;7.25;1.63;;;;;;;;;;5015116;28;20046;-70
2022/09/20 10:15:31;;;;;;;6.05;1.20;;;;;;;;;;5027360;28;20060;-70
2022/09/20 10:18:24;;;;;;;5.80;1.42;;;;;;;;;;5015191;28;20111;-70
2022/09/20 10:20:52;;;;;;;4.18;1.00;;;;;;;;;;5015219;28;20582;-70
2022/09/20 10:23:58;;;;;;;5.22;1.00;;;;;;;;;;5033404;28;20102;-70
2022/09/20 10:26:54;;;;;;;6.63;1.13;;;;;;;;;;5003240;28;20053;-70
2022/09/20 10:29:44;;;;;;;2.60;0.85;;;;;;;;;;5033313;28;20069;-70
2022/09/20 10:32:20;;;;;;;6.35;1.05;;;;;;;;;;5032947;28;20053;-71
2022/09/20 10:35:06;;;;;;;4.15;0.85;;;;;;;;;;5032772;28;20061;-70
2022/09/20 10:38:10;;;;;;;7.47;1.52;;;;;;;;;;5033330;28;20123;-70
2022/09/20 10:43:58;;;;;;;5.57;1.38;;;;;;;;;;5036718;28;20049;-70
2022/09/20 10:46:52;;;;;;;4.95;1.27;;;;;;;;;;5020251;28;20064;-70
2022/09/20 10:49:40;;;;;;;7.30;1.40;;;;;;;;;;5037113;28;20049;-71
2022/09/20 10:52:09;;;;;;;4.32;1.00;;;;;;;;;;5040768;28;20053;-70
2022/09/20 10:54:57;;;;;;;4.82;1.13;;;;;;;;;;5040134;28;20029;-70
2022/09/20 10:57:27;;;;;;;5.88;1.00;;;;;;;;;;5043361;28;20037;-70
2022/09/20 10:59:59;;;;;;;6.47;1.27;;;;;;;;;;5043404;28;20029;-70
2022/09/20 11:03:01;;;;;;;4.93;1.60;;;;;;;;;;5060173;28;20076;-70
2022/09/20 11:05:50;;;;;;;5.88;0.90;;;;;;;;;;5042066;28;20059;-71
2022/09/20 11:08:21;;;;;;;4.78;0.95;;;;;;;;;;5060615;28;20060;-70
2022/09/20 11:10:50;;;;;;;5.65;1.35;;;;;;;;;;5028129;28;20113;-70
2022/09/20 11:13:22;;;;;;;3.58;0.95;;;;;;;;;;5042546;28;20064;-70
2022/09/20 11:16:04;;;;;;;3.80;1.42;;;;;;;;;;5043438;28;20034;-70
2022/09/20 11:18:38;;;;;;;5.35;1.13;;;;;;;;;;5043033;28;20037;-69
2022/09/20 11:21:28;;;;;;;5.95;1.30;;;;;;;;;;5043853;28;20041;-70
2022/09/20 11:23:56;;;;;;;3.63;1.20;;;;;;;;;;5056591;28;20037;-70
2022/09/20 11:26:38;;;;;;;4.78;1.45;;;;;;;;;;5042170;28;20033;-70
2022/09/20 11:29:24;;;;;;;6.25;1.27;;;;;;;;;;5028301;28;20079;-70
2022/09/20 11:31:53;;;;;;;6.28;1.13;;;;;;;;;;5060031;28;20041;-70
2022/09/20 11:34:24;;;;;;;3.10;0.85;;;;;;;;;;5043105;28;20101;-70
2022/09/20 11:37:00;;;;;;;6.28;1.77;;;;;;;;;;5058284;28;20072;-70
2022/09/20 11:39:42;;;;;;;3.88;1.00;;;;;;;;;;5035785;28;20072;-70
2022/09/20 11:42:19;;;;;;;5.82;1.05;;;;;;;;;;5040789;28;20076;-70
2022/09/20 11:44:45;;;;;;;7.57;2.25;;;;;;;;;;5057879;28;20248;-70
2022/09/20 11:47:22;;;;;;;5.82;1.98;;;;;;;;;;5053262;28;20057;-70
2022/09/20 11:50:50;;;;;;;4.38;1.00;;;;;;;;;;5043154;28;20026;-70
2022/09/20 11:53:36;;;;;;;6.05;1.40;;;;;;;;;;5041519;28;20040;-69
2022/09/20 11:56:19;;;;;;;2.88;0.90;;;;;;;;;;5052592;28;20103;-69
2022/09/20 11:58:59;;;;;;;7.38;1.30;;;;;;;;;;5015751;28;20072;-69
2022/09/20 12:01:31;;;;;;;5.32;1.23;;;;;;;;;;5034995;28;20034;-69
2022/09/20 12:03:59;;;;;;;4.88;0.95;;;;;;;;;;5041719;28;20034;-70
2022/09/20 12:06:46;;;;;;;4.85;1.00;;;;;;;;;;5058295;28;20245;-69
2022/09/20 12:09:28;;;;;;;4.30;1.40;;;;;;;;;;5048121;28;20029;-69
2022/09/20 12:11:55;;;;;;;9.68;1.80;;;;;;;;;;5036803;28;20064;-69
2022/09/20 12:14:26;;;;;;;4.85;1.27;;;;;;;;;;5009489;28;20049;-70
2022/09/20 12:16:53;;;;;;;4.20;0.93;;;;;;;;;;5038665;28;20049;-70
2022/09/20 12:19:20;;;;;;;3.90;1.10;;;;;;;;;;5020996;28;20045;-69
2022/09/20 12:21:58;;;;;;;4.60;1.00;;;;;;;;;;5036126;28;20076;-70
2022/09/20 12:24:28;;;;;;;6.03;1.48;;;;;;;;;;5036154;28;20057;-70
2022/09/20 12:26:56;;;;;;;4.75;1.60;;;;;;;;;;5001459;28;20045;-70
2022/09/20 12:29:22;;;;;;;3.58;0.90;;;;;;;;;;5018004;28;20057;-70
2022/09/20 12:31:56;;;;;;;4.10;0.85;;;;;;;;;;5034179;28;20550;-70
2022/09/20 12:34:23;;;;;;;2.50;1.02;;;;;;;;;;5000311;28;20534;-69
2022/09/20 12:36:52;;;;;;;8.98;1.15;;;;;;;;;;5033877;28;20488;-69
2022/09/20 12:39:29;;;;;;;4.72;1.00;;;;;;;;;;5033625;28;20041;-70
2022/09/20 12:42:11;;;;;;;6.43;1.38;;;;;;;;;;5000880;28;20111;-69
2022/09/20 12:44:48;;;;;;;4.68;1.08;;;;;;;;;;5033432;28;20096;-70
2022/09/20 12:47:17;;;;;;;3.58;1.08;;;;;;;;;;5016912;28;20053;-69
2022/09/20 12:52:59;;;;;;;4.00;1.10;;;;;;;;;;5033738;28;20478;-69
2022/09/20 12:55:26;;;;;;;4.70;1.13;;;;;;;;;;5019221;28;20084;-69
2022/09/20 12:58:17;;;;;;;3.92;0.98;;;;;;;;;;5033306;28;20046;-69
2022/09/20 13:00:47;;;;;;;4.65;0.90;;;;;;;;;;5033726;28;20085;-69
2022/09/20 13:03:14;;;;;;;2.50;1.05;;;;;;;;;;5015518;28;20049;-69
2022/09/20 13:05:44;;;;;;;3.17;0.82;;;;;;;;;;5033700;28;20107;-69
2022/09/20 13:08:12;;;;;;;2.60;0.85;;;;;;;;;;5016648;28;20108;-69
2022/09/20 13:10:41;;;;;;;2.38;1.35;;;;;;;;;;5033827;28;20095;-70
2022/09/20 13:13:22;;;;;;;3.13;1.50;;;;;;;;;;5033495;28;20113;-69
2022/09/20 13:15:50;;;;;;;2.38;0.73;;;;;;;;;;5033280;28;20076;-69
2022/09/20 13:18:17;;;;;;;3.05;0.90;;;;;;;;;;5016096;28;20054;-69
2022/09/20 13:20:43;;;;;;;4.03;1.20;;;;;;;;;;4999239;28;20045;-69
2022/09/20 13:23:23;;;;;;;5.57;1.25;;;;;;;;;;4999499;28;20140;-69
2022/09/20 13:25:50;;;;;;;5.93;1.10;;;;;;;;;;5015688;28;20045;-69
2022/09/20 13:28:34;;;;;;;5.50;1.60;;;;;;;;;;5015069;28;20072;-69
2022/09/20 13:31:19;;;;;;;2.65;0.95;;;;;;;;;;5016812;28;20504;-69
2022/09/20 13:33:48;;;;;;;2.85;1.27;;;;;;;;;;5033210;28;20046;-69
2022/09/20 13:36:25;;;;;;;3.58;1.10;;;;;;;;;;5033235;28;20491;-69
2022/09/20 13:38:54;;;;;;;7.53;1.75;;;;;;;;;;5015011;28;20046;-69
2022/09/20 13:41:21;;;;;;;9.52;1.35;;;;;;;;;;5032569;28;20050;-69
2022/09/20 13:43:48;;;;;;;4.15;1.15;;;;;;;;;;5037841;28;20049;-69
2022/09/20 13:46:42;;;;;;;5.80;1.25;;;;;;;;;;5009507;28;20072;-69
2022/09/20 13:49:16;;;;;;;4.57;1.33;;;;;;;;;;5051327;28;20084;-69
2022/09/20 13:51:43;;;;;;;4.45;1.20;;;;;;;;;;5057330;28;20040;-69
2022/09/20 13:54:18;;;;;;;3.78;1.40;;;;;;;;;;5040348;28;20037;-69
2022/09/20 13:56:44;;;;;;;5.68;1.98;;;;;;;;;;5056394;28;20060;-69
2022/09/20 13:59:16;;;;;;;2.35;1.10;;;;;;;;;;5039824;28;20137;-69
2022/09/20 14:01:49;;;;;;;4.95;1.02;;;;;;;;;;5040854;28;20042;-69
2022/09/20 14:04:20;;;;;;;5.88;1.05;;;;;;;;;;5039993;28;20057;-69
2022/09/20 14:06:47;;;;;;;5.20;1.27;;;;;;;;;;5040804;28;20062;-70
2022/09/20 14:09:33;;;;;;;2.67;1.02;;;;;;;;;;5040094;28;20056;-69
2022/09/20 14:12:00;;;;;;;3.40;0.70;;;;;;;;;;5038143;28;20050;-68
2022/09/20 14:14:26;;;;;;;4.45;1.40;;;;;;;;;;5031609;28;20056;-69
2022/09/20 14:16:54;;;;;;;6.47;1.33;;;;;;;;;;5014550;28;20103;-69
2022/09/20 14:19:24;;;;;;;6.85;2.15;;;;;;;;;;5014778;28;20099;-69
2022/09/20 14:21:51;;;;;;;4.20;1.15;;;;;;;;;;4999277;28;20425;-68
2022/09/20 14:24:33;;;;;;;3.80;1.30;;;;;;;;;;5015043;28;20508;-69
2022/09/20 14:27:20;;;;;;;3.50;1.20;;;;;;;;;;5032661;28;20488;-69
2022/09/20 14:29:49;;;;;;;3.22;1.38;;;;;;;;;;5056620;28;20060;-70
2022/09/20 14:32:16;;;;;;;3.05;1.40;;;;;;;;;;5056787;28;20056;-69
2022/09/20 14:34:55;;;;;;;4.30;1.48;;;;;;;;;;5056348;28;20045;-69
2022/09/20 14:37:30;;;;;;;4.72;1.23;;;;;;;;;;5056607;28;20076;-70
2022/09/20 14:40:03;;;;;;;5.00;1.30;;;;;;;;;;5024814;28;20041;-70
2022/09/20 14:42:34;;;;;;;5.15;1.65;;;;;;;;;;5035079;28;20412;-69
2022/09/20 14:45:05;;;;;;;3.40;1.33;;;;;;;;;;4998570;28;20045;-69
2022/09/20 14:47:37;;;;;;;4.03;1.88;;;;;;;;;;5014699;28;20061;-69
2022/09/20 14:50:24;;;;;;;4.10;1.00;;;;;;;;;;5031974;28;20080;-69
2022/09/20 14:53:09;;;;;;;3.42;1.33;;;;;;;;;;5015770;28;20049;-69
2022/09/20 14:55:37;;;;;;;4.03;1.10;;;;;;;;;;5032562;28;20053;-69
2022/09/20 14:58:12;;;;;;;3.67;1.35;;;;;;;;;;5033486;28;20491;-70
2022/09/20 15:00:56;;;;;;;2.85;1.13;;;;;;;;;;5034010;28;20053;-69
2022/09/20 15:03:27;;;;;;;6.30;1.20;;;;;;;;;;5032813;28;20049;-69
2022/09/20 15:05:54;;;;;;;7.65;1.65;;;;;;;;;;5015837;28;20122;-69
2022/09/20 15:08:20;;;;;;;4.78;1.30;;;;;;;;;;4999610;28;20103;-69
2022/09/20 15:10:47;;;;;;;4.38;1.58;;;;;;;;;;5014741;28;20054;-69
2022/09/20 15:13:15;;;;;;;6.50;2.10;;;;;;;;;;5032226;28;20053;-69
2022/09/20 15:15:43;;;;;;;3.20;1.27;;;;;;;;;;5014861;28;20057;-69
2022/09/20 15:18:27;;;;;;;3.28;1.30;;;;;;;;;;5031899;28;20104;-69
2022/09/20 15:20:53;;;;;;;4.00;1.48;;;;;;;;;;5015229;28;20049;-69
2022/09/20 15:23:20;;;;;;;2.90;1.10;;;;;;;;;;5031736;28;20107;-69
2022/09/20 15:25:51;;;;;;;4.63;1.70;;;;;;;;;;5032073;28;20594;-69
2022/09/20 15:28:18;;;;;;;1.98;1.30;;;;;;;;;;5001793;28;20061;-69
2022/09/20 15:30:45;;;;;;;4.70;1.42;;;;;;;;;;5035648;28;20050;-69
2022/09/20 15:33:12;;;;;;;1.33;1.08;;;;;;;;;;5035823;28;20067;-69
2022/09/20 15:35:40;;;;;;;1.50;0.90;;;;;;;;;;5035220;28;20574;-69
2022/09/20 15:38:07;;;;;;;1.63;0.82;;;;;;;;;;5035099;28;20045;-69
2022/09/20 15:40:34;;;;;;;1.40;1.15;;;;;;;;;;5035054;28;20088;-69
2022/09/20 15:43:01;;;;;;;2.17;1.10;;;;;;;;;;5039363;28;20057;-69
2022/09/20 15:45:28;;;;;;;2.25;1.20;;;;;;;;;;5058118;28;20076;-69
2022/09/20 15:47:55;;;;;;;2.25;0.90;;;;;;;;;;5040284;28;20060;-69
2022/09/20 15:50:22;;;;;;;1.38;0.90;;;;;;;;;;5024721;28;20033;-69
2022/09/20 15:52:50;;;;;;;2.08;0.98;;;;;;;;;;5058422;28;20038;-69